createdAt,value
2019-03-30T00:00:52.073Z,6.73
2019-03-30T00:05:56.476Z,6.78
2019-03-30T00:11:00.912Z,6.73
2019-03-30T00:16:05.254Z,6.69
2019-03-30T00:21:09.601Z,6.64
2019-03-30T00:26:13.956Z,6.50
2019-03-30T00:31:18.329Z,6.37
2019-03-30T00:36:22.752Z,6.59
2019-03-30T00:41:27.673Z,6.35
2019-03-30T00:46:32.108Z,6.33
2019-03-30T00:51:36.491Z,6.38
2019-03-30T00:56:40.857Z,6.63
2019-03-30T01:01:45.204Z,6.50
2019-03-30T01:06:49.540Z,6.29
2019-03-30T01:11:53.892Z,6.31
2019-03-30T01:16:58.266Z,6.28
2019-03-30T01:22:02.625Z,6.39
2019-03-30T01:27:07.158Z,6.40
2019-03-30T01:32:12.503Z,6.10
2019-03-30T01:37:16.853Z,6.25
2019-03-30T01:42:21.214Z,5.93
2019-03-30T01:47:25.601Z,6.00
2019-03-30T01:52:29.939Z,6.00
2019-03-30T01:57:34.294Z,5.98
2019-03-30T02:02:38.722Z,6.02
2019-03-30T02:07:44.143Z,5.79
2019-03-30T02:12:48.501Z,5.72
2019-03-30T02:17:53.246Z,5.74
2019-03-30T02:22:57.596Z,5.58
2019-03-30T02:28:01.966Z,5.69
2019-03-30T02:33:06.521Z,5.73
2019-03-30T02:38:10.853Z,5.67
2019-03-30T02:43:15.323Z,5.61
2019-03-30T02:48:20.312Z,5.68
2019-03-30T02:53:24.720Z,5.59
2019-03-30T02:58:29.135Z,5.49
2019-03-30T03:03:33.446Z,5.48
2019-03-30T03:08:37.821Z,5.64
2019-03-30T03:13:42.139Z,5.54
2019-03-30T03:18:47.583Z,5.52
2019-03-30T03:23:51.928Z,5.53
2019-03-30T03:28:56.324Z,5.75
2019-03-30T03:34:00.732Z,5.44
2019-03-30T03:39:05.986Z,5.47
2019-03-30T03:44:10.421Z,5.28
2019-03-30T03:49:14.766Z,5.20
2019-03-30T03:54:19.293Z,5.16
2019-03-30T03:59:26.597Z,5.16
2019-03-30T04:04:31.328Z,5.09
2019-03-30T04:09:36.150Z,5.10
2019-03-30T04:14:43.747Z,4.96
2019-03-30T04:19:48.120Z,5.10
2019-03-30T04:24:52.513Z,5.00
2019-03-30T04:29:56.848Z,5.10
2019-03-30T04:35:01.294Z,5.12
2019-03-30T04:40:07.049Z,4.80
2019-03-30T04:45:11.435Z,4.77
2019-03-30T04:50:15.799Z,4.66
2019-03-30T04:55:20.199Z,4.94
2019-03-30T05:00:24.599Z,4.85
2019-03-30T05:05:28.963Z,4.93
2019-03-30T05:10:33.320Z,4.83
2019-03-30T05:15:37.662Z,5.03
2019-03-30T05:20:42.024Z,5.21
2019-03-30T05:25:46.380Z,5.16
2019-03-30T05:30:50.776Z,5.42
2019-03-30T05:35:55.207Z,5.68
2019-03-30T05:40:59.545Z,5.74
2019-03-30T05:46:03.955Z,5.99
2019-03-30T05:51:08.342Z,6.17
2019-03-30T05:56:12.710Z,6.35
2019-03-30T06:01:17.158Z,6.55
2019-03-30T06:06:22.603Z,6.81
2019-03-30T06:11:26.951Z,7.05
2019-03-30T06:16:31.301Z,7.31
2019-03-30T06:21:35.709Z,7.53
2019-03-30T06:26:40.071Z,7.58
2019-03-30T06:31:46.744Z,7.34
2019-03-30T06:36:50.502Z,7.73
2019-03-30T06:41:55.001Z,8.28
2019-03-30T06:46:59.389Z,8.64
2019-03-30T06:52:03.768Z,8.67
2019-03-30T06:57:08.191Z,8.73
2019-03-30T07:02:12.553Z,8.37
2019-03-30T07:07:17.416Z,8.67
2019-03-30T07:12:26.222Z,9.21
2019-03-30T07:17:30.593Z,9.14
2019-03-30T07:22:34.969Z,9.81
2019-03-30T07:27:39.355Z,10.22
2019-03-30T07:32:45.170Z,9.66
2019-03-30T07:37:49.461Z,10.53
2019-03-30T07:42:53.858Z,10.33
2019-03-30T07:47:58.249Z,10.93
2019-03-30T07:53:02.610Z,10.92
2019-03-30T07:58:07.038Z,10.43
2019-03-30T08:03:11.464Z,10.95
2019-03-30T08:08:17.464Z,11.23
2019-03-30T08:13:21.824Z,11.66
2019-03-30T08:18:26.210Z,11.38
2019-03-30T08:23:40.394Z,11.68
2019-03-30T08:28:36.656Z,12.01
2019-03-30T08:33:41.028Z,12.07
2019-03-30T08:38:45.392Z,12.06
2019-03-30T08:43:49.792Z,12.40
2019-03-30T08:48:54.182Z,12.19
2019-03-30T08:53:58.566Z,12.25
2019-03-30T08:59:02.978Z,12.16
2019-03-30T09:04:07.341Z,12.54
2019-03-30T09:09:11.720Z,12.47
2019-03-30T09:14:16.066Z,12.71
2019-03-30T09:19:20.427Z,12.53
2019-03-30T09:24:24.810Z,12.53
2019-03-30T09:29:29.165Z,12.82
2019-03-30T09:34:33.530Z,13.45
2019-03-30T09:39:37.990Z,13.25
2019-03-30T09:44:42.432Z,13.33
2019-03-30T09:49:47.034Z,13.23
2019-03-30T09:54:51.418Z,13.33
2019-03-30T09:59:56.838Z,13.57
2019-03-30T10:05:02.398Z,13.51
2019-03-30T10:10:07.510Z,13.73
2019-03-30T10:15:12.018Z,13.67
2019-03-30T10:20:18.997Z,14.32
2019-03-30T10:25:22.832Z,14.11
2019-03-30T10:30:27.338Z,14.48
2019-03-30T10:35:31.708Z,14.48
2019-03-30T10:40:36.048Z,14.44
2019-03-30T10:45:40.462Z,14.71
2019-03-30T10:50:44.819Z,14.54
2019-03-30T10:55:49.181Z,14.84
2019-03-30T11:00:53.551Z,14.83
2019-03-30T11:05:57.933Z,15.02
2019-03-30T11:11:02.269Z,14.82
2019-03-30T11:16:06.652Z,15.26
2019-03-30T11:21:11.025Z,15.25
2019-03-30T11:26:15.393Z,15.05
2019-03-30T11:31:19.728Z,15.27
2019-03-30T11:36:25.073Z,15.89
2019-03-30T11:41:29.443Z,15.77
2019-03-30T11:46:33.925Z,15.49
2019-03-30T11:51:38.336Z,15.44
2019-03-30T11:56:42.717Z,15.72
2019-03-30T12:01:47.127Z,15.87
2019-03-30T12:06:51.984Z,15.95
2019-03-30T12:11:56.491Z,15.84
2019-03-30T12:17:00.844Z,16.14
2019-03-30T12:22:05.224Z,15.88
2019-03-30T12:27:09.543Z,15.97
2019-03-30T12:32:13.918Z,16.24
2019-03-30T12:37:18.305Z,16.28
2019-03-30T12:42:22.674Z,16.42
2019-03-30T12:47:27.137Z,16.15
2019-03-30T12:52:31.511Z,16.15
2019-03-30T12:57:35.906Z,16.20
2019-03-30T13:02:40.285Z,15.94
2019-03-30T13:12:48.714Z,16.30
2019-03-30T13:17:53.086Z,16.06
2019-03-30T13:22:57.462Z,16.48
2019-03-30T13:28:01.835Z,16.00
2019-03-30T13:33:07.254Z,16.05
2019-03-30T13:38:12.603Z,16.17
2019-03-30T13:43:16.981Z,16.56
2019-03-30T13:48:21.335Z,16.11
2019-03-30T13:53:25.807Z,16.19
2019-03-30T13:58:30.136Z,16.36
2019-03-30T14:03:35.656Z,16.28
2019-03-30T14:08:40.270Z,16.42
2019-03-30T14:13:44.715Z,16.46
2019-03-30T14:18:49.195Z,16.46
2019-03-30T14:23:53.664Z,16.55
2019-03-30T14:28:58.191Z,16.56
2019-03-30T14:34:02.523Z,16.72
2019-03-30T14:39:07.477Z,16.59
2019-03-30T14:44:11.806Z,16.34
2019-03-30T14:49:16.271Z,16.46
2019-03-30T14:54:20.740Z,16.47
2019-03-30T14:59:25.108Z,16.64
2019-03-30T15:04:29.472Z,16.61
2019-03-30T15:09:33.832Z,16.73
2019-03-30T15:14:38.237Z,16.56
2019-03-30T15:19:42.619Z,16.59
2019-03-30T15:24:47.034Z,16.48
2019-03-30T15:29:52.579Z,16.75
2019-03-30T15:34:58.490Z,16.90
2019-03-30T15:40:02.991Z,16.90
2019-03-30T15:45:09.627Z,16.61
2019-03-30T15:50:14.373Z,16.77
2019-03-30T15:55:18.734Z,16.77
2019-03-30T16:00:23.081Z,16.53
2019-03-30T16:05:27.426Z,16.61
2019-03-30T16:10:31.861Z,16.43
2019-03-30T16:15:36.316Z,16.46
2019-03-30T16:20:40.785Z,16.41
2019-03-30T16:25:45.130Z,16.47
2019-03-30T16:30:49.489Z,16.37
2019-03-30T16:35:53.855Z,16.36
2019-03-30T16:40:58.216Z,16.28
2019-03-30T16:46:02.640Z,16.16
2019-03-30T16:51:07.179Z,16.22
2019-03-30T16:56:11.630Z,16.17
2019-03-30T17:01:16.008Z,16.07
2019-03-30T17:06:20.377Z,15.77
2019-03-30T17:11:24.914Z,15.95
2019-03-30T17:16:29.480Z,15.96
2019-03-30T17:21:33.890Z,15.83
2019-03-30T17:26:38.309Z,15.78
2019-03-30T17:31:42.843Z,15.58
2019-03-30T17:36:47.307Z,15.31
2019-03-30T17:41:51.725Z,15.16
2019-03-30T17:46:56.104Z,15.07
2019-03-30T17:52:00.562Z,15.13
2019-03-30T17:57:04.926Z,14.92
2019-03-30T18:02:09.289Z,14.87
2019-03-30T18:07:15.914Z,14.77
2019-03-30T18:12:20.608Z,14.71
2019-03-30T18:17:27.880Z,14.79
2019-03-30T18:22:33.798Z,14.50
2019-03-30T18:27:39.237Z,14.42
2019-03-30T18:32:44.689Z,14.41
2019-03-30T18:37:52.822Z,14.37
2019-03-30T18:43:01.975Z,14.26
2019-03-30T18:48:18.376Z,14.07
2019-03-30T18:53:26.131Z,13.77
2019-03-30T18:58:41.459Z,13.66
2019-03-30T19:03:39.769Z,13.58
2019-03-30T19:08:47.050Z,13.46
2019-03-30T19:13:57.845Z,13.31
2019-03-30T19:19:02.339Z,13.10
2019-03-30T19:24:06.941Z,13.12
2019-03-30T19:29:11.474Z,13.05
2019-03-30T19:34:15.927Z,12.66
2019-03-30T19:39:20.308Z,12.57
2019-03-30T19:44:24.651Z,12.54
2019-03-30T19:49:29.056Z,12.42
2019-03-30T19:54:33.447Z,12.26
2019-03-30T19:59:37.847Z,12.09
2019-03-30T20:04:42.217Z,11.99
2019-03-30T20:09:46.605Z,11.78
2019-03-30T20:14:51.007Z,11.82
2019-03-30T20:19:55.388Z,11.69
2019-03-30T20:24:59.750Z,11.39
2019-03-30T20:30:06.784Z,11.33
2019-03-30T20:35:11.354Z,11.43
2019-03-30T20:40:15.761Z,11.45
2019-03-30T20:45:20.143Z,11.66
2019-03-30T20:50:24.511Z,11.36
2019-03-30T20:55:28.892Z,10.97
2019-03-30T21:00:33.398Z,11.28
2019-03-30T21:05:37.770Z,11.10
2019-03-30T21:10:42.158Z,11.05
2019-03-30T21:15:46.531Z,11.04
2019-03-30T21:20:50.970Z,10.94
2019-03-30T21:25:55.354Z,10.92
2019-03-30T21:30:59.742Z,10.74
2019-03-30T21:36:04.131Z,10.56
2019-03-30T21:41:09.591Z,10.60
2019-03-30T21:46:13.971Z,10.40
2019-03-30T21:51:18.618Z,10.77
2019-03-30T21:56:23.030Z,10.72
2019-03-30T22:01:27.405Z,10.87
2019-03-30T22:06:31.815Z,10.92
2019-03-30T22:11:36.657Z,10.43
2019-03-30T22:16:41.094Z,10.46
2019-03-30T22:21:45.437Z,10.52
2019-03-30T22:26:49.828Z,10.49
2019-03-30T22:31:54.242Z,10.53
2019-03-30T22:36:58.629Z,10.34
2019-03-30T22:42:03.108Z,10.02
2019-03-30T22:47:07.454Z,10.28
2019-03-30T22:52:11.905Z,10.17
2019-03-30T22:57:16.284Z,10.01
2019-03-30T23:02:20.681Z,10.14
2019-03-30T23:07:25.065Z,9.85
2019-03-30T23:12:29.431Z,10.10
2019-03-30T23:17:33.788Z,9.91
2019-03-30T23:22:38.180Z,9.92
2019-03-30T23:27:42.561Z,10.29
2019-03-30T23:32:48.106Z,10.08
2019-03-30T23:37:52.448Z,9.70
2019-03-30T23:42:56.844Z,10.03
2019-03-30T23:48:01.468Z,9.86
2019-03-30T23:53:07.554Z,9.62
2019-03-30T23:58:13.256Z,9.55
